Terminal Aerodrome Forecast
Issued by NWS Pueblo, CO

Home | Current Version | Previous Version | Text Only | Print | Product List | Glossary On
Versions: 1 2 3 4 5 6 7 8 9 10 11 12 13 14 15 16 17 18 19 20 21 22 23 24 25 26 27 28 29 30 31 32 33 34 35 36 37 38 39 40 41 42 43 44 45 46 47 48 49 50
000
FTUS45 KPUB 140158 AAC
TAFCOS
TAF AMD
KCOS 140158Z 1402/1424 16009KT P6SM SCT050 BKN100
     FM140300 16009KT P6SM VCTS SCT050CB BKN100
     FM140500 35008KT P6SM FEW200
     FM141900 16010KT P6SM SCT070 SCT200
     FM142100 16010KT P6SM VCTS SCT070CB BKN150=

USA.gov is the U.S. government's official web portal to all federal, state and local government web resources and services.